createdAt,value
2018-12-02T00:00:53.353Z,59.50
2018-12-02T00:03:22.269Z,58.60
2018-12-02T00:05:50.662Z,58.50
2018-12-02T00:08:25.420Z,58.60
2018-12-02T00:10:53.799Z,58.60
2018-12-02T00:13:22.677Z,58.70
2018-12-02T00:15:51.707Z,59.20
2018-12-02T00:18:20.158Z,58.80
2018-12-02T00:20:48.485Z,58.20
2018-12-02T00:23:16.887Z,57.90
2018-12-02T00:25:45.320Z,57.90
2018-12-02T00:28:13.675Z,58.40
2018-12-02T00:30:42.181Z,58.60
2018-12-02T00:33:10.664Z,58.60
2018-12-02T00:35:39.083Z,58.60
2018-12-02T00:38:08.476Z,58.20
2018-12-02T00:40:36.839Z,58.70
2018-12-02T00:43:07.020Z,58.50
2018-12-02T00:45:37.157Z,58.50
2018-12-02T00:48:08.999Z,59.10
2018-12-02T00:50:37.779Z,58.50
2018-12-02T00:55:38.892Z,58.50
2018-12-02T00:58:07.632Z,58.50
2018-12-02T01:00:36.339Z,58.50
2018-12-02T01:03:06.404Z,59.10
2018-12-02T01:05:34.837Z,59.60
2018-12-02T01:08:03.272Z,58.50
2018-12-02T01:10:31.616Z,59.00
2018-12-02T01:15:31.243Z,58.60
2018-12-02T01:17:59.887Z,58.40
2018-12-02T01:20:28.260Z,58.90
2018-12-02T01:22:56.581Z,59.20
2018-12-02T01:25:24.944Z,59.40
2018-12-02T01:27:53.246Z,58.50
2018-12-02T01:30:23.317Z,58.60
2018-12-02T01:32:53.895Z,59.10
2018-12-02T01:35:22.555Z,58.70
2018-12-02T01:37:51.082Z,57.90
2018-12-02T01:40:20.977Z,57.90
2018-12-02T01:45:24.949Z,58.00
2018-12-02T01:50:25.494Z,58.60
2018-12-02T01:52:55.942Z,59.10
2018-12-02T01:55:25.040Z,58.70
2018-12-02T01:57:53.388Z,58.40
2018-12-02T02:00:24.698Z,58.60
2018-12-02T02:02:53.790Z,59.10
2018-12-02T02:05:24.517Z,58.60
2018-12-02T02:07:53.027Z,58.60
2018-12-02T02:10:25.074Z,58.60
2018-12-02T02:12:53.801Z,58.60
2018-12-02T02:15:22.207Z,59.10
2018-12-02T02:17:50.869Z,59.10
2018-12-02T02:20:22.205Z,58.10
2018-12-02T02:25:20.812Z,58.70
2018-12-02T02:27:56.309Z,58.70
2018-12-02T02:32:54.285Z,60.20
2018-12-02T02:35:22.847Z,59.70
2018-12-02T02:37:53.517Z,59.90
2018-12-02T02:40:23.406Z,59.70
2018-12-02T02:42:51.693Z,60.20
2018-12-02T02:45:20.011Z,60.70
2018-12-02T02:47:48.381Z,61.10
2018-12-02T02:50:23.995Z,61.80
2018-12-02T02:52:57.261Z,61.00
2018-12-02T02:55:25.642Z,61.00
2018-12-02T02:57:54.011Z,61.20
2018-12-02T03:00:25.022Z,60.40
2018-12-02T03:02:53.665Z,62.30
2018-12-02T03:05:22.297Z,62.70
2018-12-02T03:07:50.707Z,61.10
2018-12-02T03:10:20.415Z,60.80
2018-12-02T03:12:50.213Z,61.80
2018-12-02T03:15:19.627Z,59.80
2018-12-02T03:17:47.987Z,60.80
2018-12-02T03:20:20.390Z,60.20
2018-12-02T03:22:50.634Z,60.90
2018-12-02T03:25:20.618Z,60.20
2018-12-02T03:27:49.021Z,60.10
2018-12-02T03:30:19.797Z,59.80
2018-12-02T03:32:48.249Z,59.90
2018-12-02T03:35:18.448Z,60.10
2018-12-02T03:37:46.774Z,60.20
2018-12-02T03:40:18.670Z,59.50
2018-12-02T03:42:47.082Z,59.80
2018-12-02T03:45:16.805Z,60.50
2018-12-02T03:47:45.465Z,58.90
2018-12-02T03:50:17.736Z,59.70
2018-12-02T03:55:13.517Z,59.20
2018-12-02T03:57:42.681Z,59.90
2018-12-02T04:00:14.401Z,58.90
2018-12-02T04:02:42.948Z,59.20
2018-12-02T04:05:14.061Z,60.10
2018-12-02T04:07:42.438Z,59.40
2018-12-02T04:10:16.150Z,59.30
2018-12-02T04:12:45.532Z,59.50
2018-12-02T04:15:21.238Z,59.40
2018-12-02T04:17:49.638Z,59.20
2018-12-02T04:20:18.870Z,58.90
2018-12-02T04:22:48.469Z,59.10
2018-12-02T04:25:20.322Z,58.70
2018-12-02T04:27:49.755Z,58.90
2018-12-02T04:30:19.541Z,58.20
2018-12-02T04:32:52.369Z,58.70
2018-12-02T04:35:24.105Z,58.50
2018-12-02T04:37:52.573Z,58.70
2018-12-02T04:40:20.951Z,58.80
2018-12-02T04:42:49.338Z,58.50
2018-12-02T04:45:18.863Z,58.60
2018-12-02T04:47:47.764Z,58.90
2018-12-02T04:50:22.880Z,58.10
2018-12-02T04:52:51.242Z,58.70
2018-12-02T04:55:19.590Z,58.20
2018-12-02T04:57:47.929Z,57.40
2018-12-02T05:00:18.631Z,57.70
2018-12-02T05:02:49.533Z,58.20
2018-12-02T05:05:20.399Z,57.30
2018-12-02T05:07:48.951Z,57.40
2018-12-02T05:10:18.564Z,56.90
2018-12-02T05:12:47.369Z,57.40
2018-12-02T05:15:16.983Z,57.50
2018-12-02T05:17:45.334Z,58.00
2018-12-02T05:20:17.126Z,57.40
2018-12-02T05:22:45.701Z,56.80
2018-12-02T05:25:17.821Z,57.10
2018-12-02T05:27:43.832Z,56.50
2018-12-02T05:30:18.370Z,56.30
2018-12-02T05:32:48.266Z,56.30
2018-12-02T05:35:16.806Z,55.70
2018-12-02T05:37:45.500Z,55.50
2018-12-02T05:40:16.353Z,56.30
2018-12-02T05:42:45.016Z,55.40
2018-12-02T05:45:14.654Z,55.30
2018-12-02T05:47:43.518Z,56.10
2018-12-02T05:50:17.422Z,56.10
2018-12-02T05:52:52.866Z,56.10
2018-12-02T05:55:40.796Z,56.10
2018-12-02T06:00:37.354Z,57.70
2018-12-02T06:03:07.797Z,59.20
2018-12-02T06:08:06.301Z,59.50
2018-12-02T06:10:34.942Z,60.40
2018-12-02T06:13:03.693Z,60.60
2018-12-02T06:15:32.034Z,63.50
2018-12-02T06:18:00.342Z,61.20
2018-12-02T06:20:29.430Z,64.30
2018-12-02T06:22:58.289Z,67.60
2018-12-02T06:25:27.017Z,68.90
2018-12-02T06:27:55.641Z,66.50
2018-12-02T06:30:27.236Z,67.40
2018-12-02T06:33:00.679Z,68.40
2018-12-02T06:35:29.385Z,68.00
2018-12-02T06:37:59.384Z,68.60
2018-12-02T06:40:28.680Z,69.10
2018-12-02T06:42:57.544Z,69.40
2018-12-02T06:45:25.948Z,70.10
2018-12-02T06:47:54.298Z,70.10
2018-12-02T06:50:24.461Z,70.30
2018-12-02T06:52:54.183Z,71.20
2018-12-02T06:58:42.217Z,73.50
2018-12-02T07:03:32.670Z,72.40
2018-12-02T07:06:01.274Z,73.70
2018-12-02T07:08:29.660Z,74.60
2018-12-02T07:13:26.513Z,73.90
2018-12-02T07:15:54.875Z,73.70
2018-12-02T07:18:29.806Z,74.10
2018-12-02T07:21:05.224Z,74.70
2018-12-02T07:23:38.930Z,73.40
2018-12-02T07:26:11.691Z,73.50
2018-12-02T07:28:40.142Z,74.10
2018-12-02T07:31:08.514Z,74.60
2018-12-02T07:33:36.923Z,73.60
2018-12-02T07:36:11.585Z,74.40
2018-12-02T07:40:13.151Z,73.60
2018-12-02T07:42:41.913Z,72.90
2018-12-02T07:45:10.395Z,73.50
2018-12-02T07:47:38.788Z,73.00
2018-12-02T07:50:09.245Z,73.40
2018-12-02T07:52:37.602Z,73.30
2018-12-02T07:55:07.969Z,73.60
2018-12-02T07:57:37.127Z,73.90
2018-12-02T08:00:11.269Z,73.50
2018-12-02T08:02:39.874Z,73.00
2018-12-02T08:05:13.410Z,73.50
2018-12-02T08:07:42.761Z,74.00
2018-12-02T08:10:17.646Z,74.10
2018-12-02T08:12:46.106Z,74.80
2018-12-02T08:15:16.985Z,73.90
2018-12-02T08:17:45.756Z,74.60
2018-12-02T08:20:17.068Z,75.00
2018-12-02T08:22:51.262Z,75.20
2018-12-02T08:25:17.937Z,75.70
2018-12-02T08:27:46.953Z,75.50
2018-12-02T08:30:18.234Z,76.20
2018-12-02T08:32:46.629Z,75.90
2018-12-02T08:35:16.463Z,76.80
2018-12-02T08:37:47.708Z,76.10
2018-12-02T08:42:44.778Z,77.10
2018-12-02T08:45:16.987Z,77.20
2018-12-02T08:47:46.071Z,77.60
2018-12-02T08:50:19.577Z,78.30
2018-12-02T08:52:49.703Z,79.10
2018-12-02T08:55:20.315Z,79.70
2018-12-02T08:57:55.676Z,81.10
2018-12-02T09:00:25.233Z,80.80
2018-12-02T09:02:55.739Z,81.30
2018-12-02T09:05:24.184Z,81.60
2018-12-02T09:12:54.053Z,83.20
2018-12-02T09:15:22.495Z,83.50
2018-12-02T09:17:51.146Z,84.00
2018-12-02T09:20:28.234Z,84.00
2018-12-02T09:22:56.548Z,84.10
2018-12-02T09:25:25.196Z,83.60
2018-12-02T09:28:01.177Z,84.10
2018-12-02T09:30:31.214Z,84.30
2018-12-02T09:32:59.585Z,84.70
2018-12-02T09:35:27.964Z,84.20
2018-12-02T09:37:56.660Z,83.50
2018-12-02T09:40:24.997Z,84.10
2018-12-02T09:45:27.907Z,84.10
2018-12-02T09:47:58.270Z,83.90
2018-12-02T09:52:56.251Z,83.20
2018-12-02T09:55:34.521Z,83.70
2018-12-02T09:58:02.908Z,83.70
2018-12-02T10:00:34.166Z,84.20
2018-12-02T10:03:00.349Z,84.30
2018-12-02T10:05:28.855Z,83.30
2018-12-02T10:07:57.247Z,83.30
2018-12-02T10:10:25.666Z,83.90
2018-12-02T10:12:57.940Z,83.60
2018-12-02T10:15:26.658Z,82.90
2018-12-02T10:17:55.029Z,83.50
2018-12-02T10:20:23.434Z,83.10
2018-12-02T10:25:20.630Z,82.60
2018-12-02T10:27:49.613Z,82.80
2018-12-02T10:32:47.814Z,82.20
2018-12-02T10:35:16.563Z,81.80
2018-12-02T10:37:45.223Z,81.40
2018-12-02T10:40:18.177Z,82.10
2018-12-02T10:42:47.105Z,83.00
2018-12-02T10:45:18.993Z,83.00
2018-12-02T10:47:47.743Z,83.60
2018-12-02T10:50:33.452Z,83.10
2018-12-02T10:53:08.418Z,83.20
2018-12-02T11:00:49.871Z,81.80
2018-12-02T11:03:18.527Z,82.00
2018-12-02T11:05:47.070Z,82.50
2018-12-02T11:08:15.833Z,82.00
2018-12-02T11:10:44.563Z,81.10
2018-12-02T11:13:12.959Z,81.80
2018-12-02T11:15:44.103Z,81.20
2018-12-02T11:18:13.998Z,80.30
2018-12-02T11:20:43.310Z,78.60
2018-12-02T11:23:11.927Z,79.20
2018-12-02T11:25:40.244Z,79.20
2018-12-02T11:28:09.476Z,78.40
2018-12-02T11:33:08.192Z,76.40
2018-12-02T11:38:06.664Z,75.80
2018-12-02T11:40:35.800Z,76.20
2018-12-02T11:43:04.489Z,74.90
2018-12-02T11:45:36.877Z,74.40
2018-12-02T11:48:06.883Z,72.90
2018-12-02T11:50:35.678Z,72.20
2018-12-02T11:53:04.427Z,72.30
2018-12-02T11:55:32.842Z,71.60
2018-12-02T12:00:32.101Z,71.30
2018-12-02T12:03:00.695Z,71.30
2018-12-02T12:05:29.399Z,72.10
2018-12-02T12:07:57.786Z,72.20
2018-12-02T12:10:27.584Z,71.50
2018-12-02T12:12:59.372Z,69.20
2018-12-02T12:15:29.196Z,68.90
2018-12-02T12:17:58.727Z,69.40
2018-12-02T12:20:29.979Z,69.20
2018-12-02T12:25:27.025Z,68.20
2018-12-02T12:27:56.841Z,68.70
2018-12-02T12:30:27.976Z,67.60
2018-12-02T12:32:56.409Z,68.30
2018-12-02T12:35:25.684Z,69.40
2018-12-02T12:37:54.603Z,68.40
2018-12-02T12:40:34.148Z,67.60
2018-12-02T12:43:35.465Z,68.30
2018-12-02T12:46:04.046Z,66.90
2018-12-02T12:48:32.414Z,67.50
2018-12-02T12:51:01.210Z,67.90
2018-12-02T12:53:29.587Z,68.30
2018-12-02T12:55:57.997Z,68.70
2018-12-02T12:58:26.450Z,68.30
2018-12-02T13:00:54.826Z,68.80
2018-12-02T13:03:23.229Z,67.70
2018-12-02T13:08:20.298Z,67.80
2018-12-02T13:10:48.987Z,67.90
2018-12-02T13:13:17.673Z,66.40
2018-12-02T13:15:46.078Z,65.30
2018-12-02T13:18:14.413Z,63.00
2018-12-02T13:20:50.721Z,63.50
2018-12-02T13:23:19.376Z,62.90
2018-12-02T13:25:47.778Z,63.20
2018-12-02T13:28:16.352Z,64.40
2018-12-02T13:30:45.042Z,65.50
2018-12-02T13:33:13.403Z,68.10
2018-12-02T13:35:41.927Z,67.70
2018-12-02T13:38:10.723Z,68.30
2018-12-02T13:40:41.003Z,69.50
2018-12-02T13:43:14.780Z,69.90
2018-12-02T13:48:12.287Z,69.70
2018-12-02T13:50:40.906Z,70.40
2018-12-02T13:53:09.234Z,70.00
2018-12-02T13:55:38.335Z,69.60
2018-12-02T13:58:07.568Z,70.20
2018-12-02T14:00:38.137Z,69.90
2018-12-02T14:03:12.559Z,69.30
2018-12-02T14:05:45.721Z,68.10
2018-12-02T14:08:14.225Z,68.70
2018-12-02T14:10:43.182Z,67.70
2018-12-02T14:13:18.092Z,68.20
2018-12-02T14:16:00.943Z,68.50
2018-12-02T14:18:38.338Z,69.00
2018-12-02T14:21:07.129Z,69.40
2018-12-02T14:23:37.645Z,69.60
2018-12-02T14:26:14.770Z,70.00
2018-12-02T14:28:53.990Z,69.80
2018-12-02T14:31:23.069Z,69.10
2018-12-02T14:33:51.480Z,69.30
2018-12-02T14:41:16.646Z,69.80
2018-12-02T14:43:45.024Z,70.40
2018-12-02T14:46:13.877Z,70.20
2018-12-02T14:48:42.570Z,70.60
2018-12-02T14:51:11.001Z,71.30
2018-12-02T14:53:39.650Z,71.50
2018-12-02T14:56:08.135Z,71.80
2018-12-02T14:58:36.482Z,72.20
2018-12-02T15:01:05.617Z,72.10
2018-12-02T15:03:35.031Z,72.80
2018-12-02T15:06:03.415Z,72.90
2018-12-02T15:08:31.858Z,72.20
2018-12-02T15:11:00.233Z,72.20
2018-12-02T15:13:28.906Z,72.80
2018-12-02T15:15:57.938Z,72.20
2018-12-02T15:18:26.333Z,72.90
2018-12-02T15:20:54.755Z,72.90
2018-12-02T15:23:23.444Z,73.40
2018-12-02T15:25:52.132Z,74.00
2018-12-02T15:28:20.533Z,74.60
2018-12-02T15:30:49.337Z,75.00
2018-12-02T15:33:17.650Z,75.30
2018-12-02T15:35:46.199Z,75.40
2018-12-02T15:38:15.491Z,75.30
2018-12-02T15:43:13.238Z,75.60
2018-12-02T15:45:41.581Z,76.20
2018-12-02T15:48:09.958Z,76.40
2018-12-02T15:50:38.314Z,76.70
2018-12-02T15:53:06.683Z,76.90
2018-12-02T15:55:36.336Z,76.60
2018-12-02T15:58:09.597Z,77.20
2018-12-02T16:00:40.983Z,76.90
2018-12-02T16:03:09.404Z,76.80
2018-12-02T16:05:37.798Z,76.70
2018-12-02T16:08:07.707Z,77.20
2018-12-02T16:10:36.850Z,77.30
2018-12-02T16:13:08.085Z,77.30
2018-12-02T16:15:36.954Z,77.30
2018-12-02T16:18:07.627Z,77.30
2018-12-02T16:23:14.466Z,77.60
2018-12-02T16:25:42.885Z,77.60
2018-12-02T16:28:11.358Z,77.70
2018-12-02T16:30:40.138Z,78.10
2018-12-02T16:33:08.518Z,78.20
2018-12-02T16:35:37.400Z,78.50
2018-12-02T16:38:09.103Z,79.10
2018-12-02T16:40:37.830Z,78.80
2018-12-02T16:43:07.585Z,79.00
2018-12-02T16:45:36.189Z,79.10
2018-12-02T16:48:06.730Z,79.70
2018-12-02T16:53:10.344Z,79.40
2018-12-02T16:55:51.888Z,80.60
2018-12-02T16:58:32.176Z,80.00
2018-12-02T17:01:10.884Z,79.70
2018-12-02T17:03:39.590Z,80.00
2018-12-02T17:06:11.042Z,80.50
2018-12-02T17:08:39.501Z,79.80
2018-12-02T17:11:08.220Z,79.80
2018-12-02T17:13:37.300Z,79.70
2018-12-02T17:16:06.366Z,79.90
2018-12-02T17:18:35.415Z,80.00
2018-12-02T17:21:03.810Z,79.60
2018-12-02T17:23:32.206Z,80.10
2018-12-02T17:26:01.681Z,79.40
2018-12-02T17:28:30.147Z,79.20
2018-12-02T17:31:08.303Z,80.00
2018-12-02T17:33:37.243Z,79.20
2018-12-02T17:36:06.306Z,79.80
2018-12-02T17:38:34.730Z,79.60
2018-12-02T17:41:04.164Z,79.70
2018-12-02T17:43:32.606Z,79.20
2018-12-02T17:48:29.418Z,79.10
2018-12-02T17:50:57.750Z,79.20
2018-12-02T17:53:26.150Z,80.20
2018-12-02T17:56:01.595Z,79.80
2018-12-02T17:58:30.022Z,78.90
2018-12-02T18:00:59.286Z,79.40
2018-12-02T18:03:30.626Z,78.60
2018-12-02T18:05:59.019Z,79.10
2018-12-02T18:08:27.785Z,78.50
2018-12-02T18:10:56.148Z,79.10
2018-12-02T18:13:25.054Z,78.60
2018-12-02T18:15:53.823Z,78.50
2018-12-02T18:18:23.112Z,79.20
2018-12-02T18:20:51.836Z,78.80
2018-12-02T18:23:21.225Z,79.30
2018-12-02T18:25:49.655Z,79.70
2018-12-02T18:28:18.212Z,80.20
2018-12-02T18:30:47.066Z,80.80
2018-12-02T18:33:16.478Z,80.50
2018-12-02T18:38:34.491Z,80.50
2018-12-02T18:41:12.498Z,80.80
2018-12-02T18:43:40.837Z,81.10
2018-12-02T18:46:10.662Z,81.80
2018-12-02T18:48:39.162Z,82.40
2018-12-02T18:51:07.842Z,83.00
2018-12-02T18:53:36.626Z,84.60
2018-12-02T18:56:05.677Z,85.30
2018-12-02T19:01:03.356Z,85.20
2018-12-02T19:03:31.791Z,85.50
2018-12-02T19:06:00.362Z,85.40
2018-12-02T19:08:29.326Z,85.00
2018-12-02T19:10:59.270Z,85.60
2018-12-02T19:13:27.895Z,84.10
2018-12-02T19:15:56.255Z,84.00
2018-12-02T19:18:25.043Z,83.40
2018-12-02T19:20:56.631Z,83.00
2018-12-02T19:23:31.489Z,83.70
2018-12-02T19:25:59.842Z,83.50
2018-12-02T19:28:28.274Z,82.30
2018-12-02T19:30:56.630Z,82.30
2018-12-02T19:33:26.581Z,82.90
2018-12-02T19:36:06.815Z,83.00
2018-12-02T19:38:35.777Z,82.30
2018-12-02T19:41:05.012Z,83.50
2018-12-02T19:43:33.429Z,82.70
2018-12-02T19:48:30.123Z,83.00
2018-12-02T19:50:59.172Z,82.60
2018-12-02T19:53:28.176Z,82.80
2018-12-02T19:55:56.867Z,82.90
2018-12-02T19:58:26.101Z,82.30
2018-12-02T20:00:54.499Z,82.30
2018-12-02T20:03:22.881Z,82.90
2018-12-02T20:05:51.691Z,83.00
2018-12-02T20:08:21.033Z,83.40
2018-12-02T20:10:52.751Z,83.40
2018-12-02T20:13:22.427Z,84.00
2018-12-02T20:15:58.367Z,84.10
2018-12-02T20:18:27.274Z,84.50
2018-12-02T20:20:58.374Z,84.60
2018-12-02T20:23:33.739Z,84.90
2018-12-02T20:26:03.714Z,85.20
2018-12-02T20:28:40.620Z,85.40
2018-12-02T20:31:12.923Z,86.00
2018-12-02T20:33:41.801Z,86.00
2018-12-02T20:36:10.238Z,86.40
2018-12-02T20:41:07.418Z,87.00
2018-12-02T20:43:35.835Z,87.60
2018-12-02T20:46:04.458Z,88.00
2018-12-02T20:48:33.025Z,88.30
2018-12-02T20:51:01.633Z,88.20
2018-12-02T20:53:30.014Z,87.70
2018-12-02T20:55:58.399Z,88.40
2018-12-02T20:58:27.324Z,88.20
2018-12-02T21:00:55.984Z,87.90
2018-12-02T21:03:29.705Z,87.40
2018-12-02T21:06:11.031Z,87.50
2018-12-02T21:08:39.675Z,87.70
2018-12-02T21:11:08.118Z,88.30
2018-12-02T21:13:36.501Z,88.10
2018-12-02T21:16:06.604Z,87.90
2018-12-02T21:18:34.997Z,87.40
2018-12-02T21:21:03.397Z,88.00
2018-12-02T21:23:31.765Z,88.00
2018-12-02T21:26:02.037Z,88.40
2018-12-02T21:28:30.976Z,88.00
2018-12-02T21:31:00.302Z,88.00
2018-12-02T21:33:29.669Z,88.00
2018-12-02T21:38:27.048Z,87.30
2018-12-02T21:40:55.856Z,87.30
2018-12-02T21:45:53.535Z,87.30
2018-12-02T21:48:22.703Z,86.90
2018-12-02T21:50:54.831Z,86.30
2018-12-02T21:53:24.842Z,86.20
2018-12-02T21:55:54.165Z,87.00
2018-12-02T21:58:22.996Z,86.20
2018-12-02T22:00:57.498Z,86.30
2018-12-02T22:03:27.339Z,86.80
2018-12-02T22:05:56.205Z,85.60
2018-12-02T22:08:25.550Z,85.40
2018-12-02T22:10:55.251Z,85.40
2018-12-02T22:13:24.498Z,85.90
2018-12-02T22:15:53.805Z,85.20
2018-12-02T22:18:23.419Z,84.80
2018-12-02T22:20:51.991Z,86.00
2018-12-02T22:25:49.543Z,84.50
2018-12-02T22:28:19.713Z,84.20
2018-12-02T22:30:48.286Z,84.30
2018-12-02T22:33:17.130Z,83.90
2018-12-02T22:35:45.789Z,84.00
2018-12-02T22:38:15.253Z,84.00
2018-12-02T22:40:43.969Z,84.00
2018-12-02T22:43:12.359Z,84.60
2018-12-02T22:45:40.900Z,84.10
2018-12-02T22:48:09.380Z,83.50
2018-12-02T22:50:37.710Z,82.40
2018-12-02T22:53:06.751Z,83.00
2018-12-02T22:55:35.105Z,83.00
2018-12-02T22:58:03.624Z,83.00
2018-12-02T23:00:38.270Z,83.10
2018-12-02T23:03:13.722Z,83.00
2018-12-02T23:05:44.089Z,82.00
2018-12-02T23:08:13.142Z,81.80
2018-12-02T23:10:44.353Z,82.50
2018-12-02T23:13:13.339Z,82.20
2018-12-02T23:15:43.397Z,81.90
2018-12-02T23:18:13.355Z,81.10
2018-12-02T23:20:41.936Z,81.50
2018-12-02T23:23:17.167Z,81.60
2018-12-02T23:25:45.577Z,81.50
2018-12-02T23:28:14.148Z,80.90
2018-12-02T23:30:43.850Z,81.40
2018-12-02T23:33:13.443Z,80.70
2018-12-02T23:35:42.901Z,81.10
2018-12-02T23:40:41.355Z,80.00
2018-12-02T23:43:10.849Z,79.90
2018-12-02T23:45:39.376Z,80.60
2018-12-02T23:48:08.190Z,80.30
2018-12-02T23:50:36.699Z,79.70
2018-12-02T23:53:06.563Z,79.90
2018-12-02T23:55:36.372Z,80.60
2018-12-02T23:58:05.497Z,80.70
